• Join FlightAware (Why Join?)
  • Login
  • US Flag 
06:40PM EDT


 

Airport Tracker/Info


-or-


 

Live Flight TrackerFlight Track Log ✈ JBU51 ✈ 25-Jun-2014 ✈ KBOS - KMCO

Flight Track Log - Related Links

Times and Time Zones

All times are in EDT time to prevent confusion due to time zone crossing. See the JBU51 flight status page for this flight to view local times or setup timezone preferences in your user account.

Time Position Orientation Groundspeed Altitude Reporting Facility
EDT Latitude Longitude Course Direction KTS MPH feet Rate Location/Type
06:17AM 42.3500 -71.0167 200° South 152 175 800  Level KA90
06:18AM 42.3500 -71.0167 90° East 156 180 1,400 1,800 Climbing KA90
06:19AM 42.3167 -70.9500 124° Southeast 291 335 3,000 2,340 Climbing KA90
06:20AM 42.3176 -70.6970 164° South  Level FlightAware Approximate
06:20AM 42.3264 -70.8419 83° East 291 335 6,500  Level Boston Center
06:21AM 42.2060 -70.6363 160° South  Level FlightAware Approximate
06:21AM 42.3125 -70.7347 100° East 306 352 9,500  Level Boston Center
06:22AM 42.0924 -70.6205 200° South  Level FlightAware Approximate
06:22AM 42.2481 -70.6619 140° Southeast 331 381 11,200  Level Boston Center
06:23AM 41.9789 -70.6773 200° South  Level FlightAware Approximate
06:23AM 42.1536 -70.6214 162° South 356 410 13,300  Level Boston Center
06:24AM 42.0572 -70.6503 193° South 365 420 15,700 2,220 Climbing Boston Center
06:25AM 41.9428 -70.7011 198° South 363 418 18,000 2,100 Climbing Boston Center
06:26AM 41.8419 -70.7447 198° South 377 434 20,000 1,620 Climbing Boston Center
06:27AM 41.7481 -70.8144 209° Southwest 389 448 21,400 1,380 Climbing Boston Center
06:28AM 41.6511 -70.8867 209° Southwest 397 457 22,900 1,380 Climbing Boston Center
06:29AM 41.5547 -70.9672 212° Southwest 406 467 24,200 1,200 Climbing Boston Center
06:30AM 41.4756 -71.0772 226° Southwest 411 473 25,400 1,140 Climbing Boston Center
06:31AM 41.4019 -71.2003 231° Southwest 420 483 26,600 1,080 Climbing Boston Center
06:32AM 41.3261 -71.3228 231° Southwest 428 493 27,700 1,080 Climbing Boston Center
06:33AM 41.2472 -71.4506 231° Southwest 437 503 28,800 1,080 Climbing Boston Center
06:34AM 41.1678 -71.5783 230° Southwest 446 513 29,900 1,140 Climbing Boston Center
06:35AM 41.0897 -71.7061 231° Southwest 446 513 31,200 1,440 Climbing Boston Center
06:36AM 40.9864 -71.8458 226° Southwest 442 509 32,900 1,380 Climbing Boston Center
06:37AM 40.9011 -71.9586 225° Southwest 442 509 34,100 1,080 Climbing Boston Center
06:38AM 40.8144 -72.0694 224° Southwest 438 504 35,100 900 Climbing Boston Center
06:39AM 40.7236 -72.1875 225° Southwest 437 503 36,000 420 Climbing Boston Center
06:40AM 40.6389 -72.2969 224° Southwest 431 496 36,000  Level Boston Center
06:41AM 40.5536 -72.4089 225° Southwest 431 496 36,000  Level Boston Center
06:42AM 40.4683 -72.5192 225° Southwest 431 496 36,000  Level Boston Center
06:43AM 40.3817 -72.6294 224° Southwest 431 496 36,000  Level Boston Center
06:44AM 40.2961 -72.7392 224° Southwest 431 496 36,000 -60 Level Boston Center
06:45AM 40.2108 -72.8489 225° Southwest 431 496 35,900  Descending Boston Center
06:46AM 40.1231 -72.9583 224° Southwest 431 496 36,000  Climbing Boston Center
06:47AM 40.0372 -73.0672 224° Southwest 431 496 36,000  Level Boston Center
06:48AM 39.9506 -73.1753 224° Southwest 431 496 36,000  Level Boston Center
06:49AM 39.8644 -73.2828 224° Southwest 431 496 36,000  Level Boston Center
06:50AM 39.7725 -73.3806 219° Southwest 431 496 36,000  Level Boston Center
06:51AM 39.6789 -73.4761 218° Southwest 429 494 36,000  Level Boston Center
06:52AM 39.5858 -73.5697 218° Southwest 428 493 36,000  Level Boston Center
06:53AM 39.4742 -73.6839 218° Southwest 426 490 36,000  Level Boston Center
06:54AM 39.3811 -73.7781 218° Southwest 426 490 36,000  Level Boston Center
06:55AM 39.2869 -73.8728 218° Southwest 426 490 36,000  Level Boston Center
06:56AM 39.1939 -73.9672 218° Southwest 426 490 36,000 -60 Level Boston Center
06:57AM 39.1003 -74.0606 218° Southwest 426 490 35,900  Descending Boston Center
06:58AM 38.9861 -74.1764 218° Southwest 429 494 36,000  Climbing Washington Center
06:59AM 38.8914 -74.2714 218° Southwest 434 499 36,000  Level Washington Center
07:00AM 38.7964 -74.3639 217° Southwest 434 499 36,000  Level Washington Center
07:01AM 38.6994 -74.4611 218° Southwest 434 499 36,000  Level Washington Center
07:02AM 38.6064 -74.5503 217° Southwest 429 494 36,000  Level Washington Center
07:03AM 38.5092 -74.6472 218° Southwest 435 501 36,000  Level Washington Center
07:04AM 38.4139 -74.7411 218° Southwest 435 501 36,000  Level Washington Center
07:06AM 38.3186 -74.8347 218° Southwest 435 501 36,000  Level Washington Center
07:06AM 38.2275 -74.9308 220° Southwest 435 501 36,000  Level Washington Center
07:07AM 38.1278 -75.0189 215° Southwest 440 506 36,000  Level Washington Center
07:09AM 38.0303 -75.1172 218° Southwest 440 506 36,000  Level Washington Center
07:09AM 37.9347 -75.2075 217° Southwest 440 506 36,000  Level Washington Center
07:10AM 37.8392 -75.3025 218° Southwest 440 506 36,000 -60 Level Washington Center
07:11AM 37.7414 -75.3947 217° Southwest 440 506 35,900  Descending Washington Center
07:12AM 37.6433 -75.4869 217° Southwest 440 506 36,000  Climbing Washington Center
07:13AM 37.5453 -75.5761 216° Southwest 440 506 36,000  Level Washington Center
07:14AM 37.4472 -75.6703 217° Southwest 440 506 36,000  Level Washington Center
07:15AM 37.3514 -75.7642 218° Southwest 446 513 36,000  Level Washington Center
07:16AM 37.2531 -75.8528 216° Southwest 446 513 36,000  Level Washington Center
07:17AM 37.1547 -75.9464 217° Southwest 446 513 36,000  Level Washington Center
07:18AM 37.0586 -76.0369 217° Southwest 441 507 36,000  Level Washington Center
07:19AM 36.9517 -76.1272 214° Southwest 449 517 36,000  Level Washington Center
07:20AM 36.8533 -76.2200 217° Southwest 454 522 36,000  Level Washington Center
07:21AM 36.7547 -76.3100 216° Southwest 454 522 36,000  Level Washington Center
07:22AM 36.6667 -76.3972 218° Southwest 454 522 36,000  Level Washington Center
07:24AM 36.5678 -76.4842 215° Southwest 454 522 36,000  Level Washington Center
07:24AM 36.4692 -76.5733 216° Southwest 449 517 36,000  Level Washington Center
07:25AM 36.3725 -76.6625 217° Southwest 449 517 36,000 -60 Level Washington Center
07:27AM 36.2736 -76.7514 216° Southwest 449 517 35,900  Descending Washington Center
07:27AM 36.1767 -76.8375 216° Southwest 444 511 36,000  Climbing Washington Center
07:28AM 36.0778 -76.9258 216° Southwest 444 511 35,900  Descending Washington Center
07:29AM 35.9808 -77.0142 216° Southwest 444 511 36,000  Climbing Washington Center
07:30AM 35.8794 -77.0994 214° Southwest 444 511 36,000  Level Washington Center
07:31AM 35.7906 -77.1925 220° Southwest 439 505 36,000  Level Washington Center
07:32AM 35.6894 -77.2775 214° Southwest 439 505 36,000  Level Washington Center
07:34AM 35.5922 -77.3647 216° Southwest 444 511 36,000  Level Washington Center
07:35AM 35.4906 -77.4542 216° Southwest 444 511 36,000  Level Washington Center
07:35AM 35.3911 -77.5411 215° Southwest 444 511 36,000  Level Washington Center
07:37AM 35.2956 -77.6381 220° Southwest 444 511 36,000  Level Washington Center
07:38AM 35.2022 -77.7322 220° Southwest 444 511 36,000  Level Washington Center
07:38AM 35.1086 -77.8289 220° Southwest 444 511 36,000  Level Washington Center
07:40AM 35.0150 -77.9250 220° Southwest 444 511 36,000  Level Washington Center
07:40AM 34.9192 -78.0236 220° Southwest 444 511 36,000  Level Washington Center
07:41AM 34.8233 -78.1194 219° Southwest 444 511 36,000  Level Washington Center
07:43AM 34.7292 -78.2253 223° Southwest 449 517 36,000 540 Level Washington Center
07:45AM 34.4947 -78.4514 219° Southwest 454 522 37,900 540 Climbing Jacksonville Center
07:46AM 34.3944 -78.5672 224° Southwest 454 522 38,000  Climbing Jacksonville Center
07:47AM 34.2953 -78.6625 218° Southwest 454 522 38,000  Level Jacksonville Center
07:48AM 34.2025 -78.7575 220° Southwest 454 522 38,000  Level Jacksonville Center
07:49AM 34.0964 -78.8303 210° Southwest 454 522 38,000  Level Jacksonville Center
07:50AM 33.9794 -78.8856 201° Southwest 448 516 38,000  Level Jacksonville Center
07:51AM 33.8664 -78.9433 203° Southwest 448 516 38,000  Level Jacksonville Center
07:52AM 33.7514 -79.0011 203° Southwest 448 516 38,000 -60 Level Jacksonville Center
07:53AM 33.6364 -79.0583 203° Southwest 448 516 37,900  Descending Jacksonville Center
07:54AM 33.5211 -79.1158 203° Southwest 448 516 38,000  Climbing Jacksonville Center
07:55AM 33.4122 -79.1678 202° Southwest 443 510 38,000  Level Jacksonville Center
07:56AM 33.2969 -79.2247 202° Southwest 448 516 38,000  Level Jacksonville Center
07:57AM 33.1817 -79.2814 202° Southwest 448 516 38,000 -60 Level Jacksonville Center
07:58AM 33.0706 -79.3356 202° Southwest 448 516 37,900 -60 Descending Jacksonville Center
07:59AM 32.9553 -79.3922 202° Southwest 448 516 37,900  Level Jacksonville Center
08:00AM 32.8419 -79.4508 203° Southwest 448 516 38,000  Climbing Jacksonville Center
08:01AM 32.7514 -79.4964 203° Southwest 448 516 38,000  Level Jacksonville Center
08:02AM 32.6256 -79.5553 202° Southwest 448 516 38,000  Level Jacksonville Center
08:03AM 32.5122 -79.6111 203° Southwest 448 516 38,000  Level Jacksonville Center
08:04AM 32.3989 -79.6669 203° Southwest 448 516 38,000  Level Jacksonville Center
08:05AM 32.2856 -79.7200 202° Southwest 448 516 38,000  Level Jacksonville Center
08:06AM 32.1700 -79.7756 202° Southwest 448 516 38,000  Level Jacksonville Center
08:07AM 32.0564 -79.8311 203° Southwest 448 516 38,000  Level Jacksonville Center
08:08AM 31.9408 -79.8839 201° Southwest 448 516 38,000  Level Jacksonville Center
08:09AM 31.8275 -79.9414 203° Southwest 448 516 38,000  Level Jacksonville Center
08:10AM 31.7117 -79.9986 203° Southwest 448 516 38,000  Level Jacksonville Center
08:11AM 31.5981 -80.0511 201° Southwest 448 516 38,000  Level Jacksonville Center
08:12AM 31.4867 -80.1031 202° Southwest 448 516 38,000 -60 Level Jacksonville Center
08:13AM 31.3708 -80.1603 203° Southwest 448 516 37,900  Descending Jacksonville Center
08:14AM 31.2447 -80.2172 201° Southwest 448 516 38,000 -300 Climbing Jacksonville Center
08:15AM 31.1311 -80.2692 201° Southwest 448 516 37,300 -900 Descending Jacksonville Center
08:16AM 31.0194 -80.3231 202° Southwest 448 516 36,200 -1,200 Descending Jacksonville Center
08:17AM 30.9056 -80.3769 202° Southwest 448 516 35,000 -1,140 Descending Jacksonville Center
08:18AM 30.7878 -80.4308 201° Southwest 448 516 34,000 -540 Descending Jacksonville Center
08:19AM 30.6697 -80.4847 201° Southwest 448 516 34,000  Level Jacksonville Center
08:20AM 30.5539 -80.5406 203° Southwest 448 516 34,000  Level Jacksonville Center
08:21AM 30.4378 -80.5942 202° Southwest 453 521 34,000 -360 Level Jacksonville Center
08:22AM 30.3281 -80.6472 203° Southwest 448 516 33,300 -900 Descending Jacksonville Center
08:23AM 30.2100 -80.7006 201° Southwest 448 516 32,300 -1,020 Descending Jacksonville Center
08:24AM 30.0919 -80.7536 201° Southwest 453 521 31,300 -1,140 Descending Jacksonville Center
08:25AM 29.9781 -80.8064 202° Southwest 453 521 30,100 -1,740 Descending Jacksonville Center
08:26AM 29.8642 -80.8592 202° Southwest 448 516 27,900 -2,220 Descending Jacksonville Center
08:27AM 29.7564 -80.9092 202° Southwest 440 506 25,700 -2,220 Descending Jacksonville Center
08:28AM 29.6444 -80.9594 201° Southwest 435 501 23,500 -2,220 Descending Jacksonville Center
08:29AM 29.5367 -81.0117 203° Southwest 430 495 21,300 -2,100 Descending Jacksonville Center
08:30AM 29.4472 -81.0467 199° South 409 471 19,400 -2,040 Descending Jacksonville Center
08:31AM 29.3456 -81.0914 201° Southwest 394 453 17,300 -2,100 Descending Jacksonville Center
08:32AM 29.2458 -81.1100 189° South 378 435 15,300 -2,040 Descending Jacksonville Center
08:33AM 29.1414 -81.1025 176° South 373 429 13,300 -1,560 Descending Jacksonville Center
08:34AM 29.0450 -81.0922 175° South 360 414 12,200 -660 Descending Jacksonville Center
08:35AM 28.9575 -81.0892 178° South 342 394 12,000 -720 Descending Jacksonville Center
08:36AM 28.8667 -81.0333 152° Southeast 314 361 10,700 -1,320 Descending Orlando TRACON
08:37AM 28.7833 -80.9833 152° Southeast 303 349 9,100 -1,200 Descending Orlando TRACON
08:38AM 28.7333 -81.0333 221° Southwest 242 278 8,300 -1,140 Descending Orlando TRACON
08:39AM 28.7167 -81.1167 257° West 231 266 6,900 -1,200 Descending Orlando TRACON
08:40AM 28.7164 -81.1597 270° West 191 220 6,100 -1,380 Descending Jacksonville Center
08:41AM 28.7067 -81.2261 261° West 209 241 4,500 -1,080 Descending Jacksonville Center
08:43AM 28.5833 -81.3000 208° Southwest 188 216 2,700 -660 Descending Orlando TRACON
08:44AM 28.5500 -81.3167 204° Southwest 165 190 2,500 -780 Descending Orlando TRACON
08:45AM 28.5000 -81.3167 180° South 160 184 1,200 -1,080 Descending Orlando TRACON
08:46AM 28.4667 -81.3167 180° South 147 169 500 -780 Descending Orlando TRACON
08:48AM 28.4294 -81.3090 180° South  Level Estimated